createdAt,value
2018-01-11T00:01:24.736Z,73.13
2018-01-11T00:03:53.177Z,92.40
2018-01-11T00:06:21.491Z,173.97
2018-01-11T00:08:51.496Z,113.33
2018-01-11T00:11:20.420Z,74.83
2018-01-11T00:13:48.974Z,80.93
2018-01-11T00:16:17.342Z,101.93
2018-01-11T00:18:45.640Z,75.73
2018-01-11T00:21:13.983Z,78.00
2018-01-11T00:23:42.280Z,76.10
2018-01-11T00:26:10.676Z,78.50
2018-01-11T00:28:38.959Z,92.13
2018-01-11T00:31:07.297Z,77.40
2018-01-11T00:33:35.691Z,130.03
2018-01-11T00:36:04.051Z,103.43
2018-01-11T00:38:32.379Z,129.23
2018-01-11T00:41:00.747Z,82.90
2018-01-11T00:43:29.110Z,84.83
2018-01-11T00:45:57.608Z,83.13
2018-01-11T00:48:26.124Z,116.83
2018-01-11T00:50:54.438Z,91.43
2018-01-11T00:53:22.726Z,76.27
2018-01-11T00:55:51.203Z,89.90
2018-01-11T00:58:19.599Z,82.43
2018-01-11T01:00:47.971Z,94.50
2018-01-11T01:03:16.616Z,65.70
2018-01-11T01:05:45.445Z,89.37
2018-01-11T01:08:13.724Z,70.20
2018-01-11T01:10:42.183Z,60.70
2018-01-11T01:13:10.509Z,59.83
2018-01-11T01:15:38.835Z,68.30
2018-01-11T01:18:08.322Z,58.90
2018-01-11T01:20:36.961Z,66.53
2018-01-11T01:23:05.848Z,66.23
2018-01-11T01:25:34.229Z,56.30
2018-01-11T01:28:02.603Z,61.33
2018-01-11T01:30:31.331Z,81.27
2018-01-11T01:32:59.676Z,58.03
2018-01-11T01:35:28.070Z,51.13
2018-01-11T01:37:56.743Z,49.10
2018-01-11T01:40:27.402Z,46.83
2018-01-11T01:42:55.915Z,42.60
2018-01-11T01:45:30.747Z,54.67
2018-01-11T01:47:59.094Z,41.03
2018-01-11T01:50:27.547Z,47.17
2018-01-11T01:52:55.995Z,34.07
2018-01-11T01:55:24.483Z,32.57
2018-01-11T01:57:52.787Z,34.00
2018-01-11T02:00:21.078Z,34.67
2018-01-11T02:02:49.490Z,34.20
2018-01-11T02:05:17.804Z,33.77
2018-01-11T02:07:46.112Z,33.77
2018-01-11T02:10:14.421Z,29.80
2018-01-11T02:12:42.783Z,32.53
2018-01-11T02:15:11.098Z,34.63
2018-01-11T02:17:39.565Z,29.83
2018-01-11T02:20:07.897Z,30.53
2018-01-11T02:22:36.341Z,34.10
2018-01-11T02:25:04.686Z,32.23
2018-01-11T02:27:33.067Z,30.40
2018-01-11T02:30:01.319Z,31.23
2018-01-11T02:32:29.722Z,32.00
2018-01-11T02:34:58.019Z,35.60
2018-01-11T02:37:26.429Z,43.33
2018-01-11T02:39:55.365Z,47.50
2018-01-11T02:42:23.689Z,52.63
2018-01-11T02:53:39.073Z,42.33
2018-01-11T02:56:07.580Z,38.70
2018-01-11T02:58:35.846Z,46.77
2018-01-11T03:01:04.183Z,41.17
2018-01-11T03:03:32.593Z,45.07
2018-01-11T03:06:00.917Z,46.17
2018-01-11T03:08:29.174Z,44.90
2018-01-11T03:10:57.840Z,39.00
2018-01-11T03:13:26.112Z,45.47
2018-01-11T03:15:54.492Z,38.60
2018-01-11T03:18:22.760Z,46.43
2018-01-11T03:20:51.123Z,43.93
2018-01-11T03:23:19.403Z,42.57
2018-01-11T03:25:47.921Z,47.37
2018-01-11T03:28:16.186Z,42.37
2018-01-11T03:30:45.368Z,44.10
2018-01-11T03:33:13.846Z,43.63
2018-01-11T03:35:42.288Z,43.13
2018-01-11T03:38:10.707Z,47.67
2018-01-11T03:40:39.001Z,49.60
2018-01-11T03:43:07.286Z,44.83
2018-01-11T03:45:35.682Z,45.40
2018-01-11T03:48:04.112Z,41.30
2018-01-11T03:50:32.526Z,44.00
2018-01-11T03:53:00.986Z,51.77
2018-01-11T03:55:29.288Z,44.00
2018-01-11T03:57:57.955Z,45.00
2018-01-11T04:00:26.259Z,42.77
2018-01-11T04:02:54.532Z,44.90
2018-01-11T04:05:23.003Z,49.53
2018-01-11T04:07:51.435Z,51.77
2018-01-11T04:10:19.733Z,49.17
2018-01-11T04:12:48.002Z,50.73
2018-01-11T04:15:16.512Z,45.00
2018-01-11T04:17:44.787Z,48.20
2018-01-11T04:20:13.286Z,46.30
2018-01-11T04:22:41.552Z,52.20
2018-01-11T04:25:10.026Z,48.67
2018-01-11T04:27:38.471Z,48.20
2018-01-11T04:30:06.770Z,51.43
2018-01-11T04:32:35.033Z,51.00
2018-01-11T04:35:03.418Z,53.27
2018-01-11T04:37:31.778Z,52.13
2018-01-11T04:40:00.092Z,49.33
2018-01-11T04:42:28.474Z,47.63
2018-01-11T04:44:56.746Z,47.90
2018-01-11T04:47:25.073Z,50.20
2018-01-11T04:49:56.608Z,52.80
2018-01-11T04:52:25.007Z,51.07
2018-01-11T04:54:53.404Z,48.00
2018-01-11T04:57:21.915Z,51.50
2018-01-11T04:59:50.174Z,49.83
2018-01-11T05:05:14.554Z,49.70
2018-01-11T05:07:42.903Z,51.53
2018-01-11T05:10:11.222Z,54.80
2018-01-11T05:12:39.525Z,57.13
2018-01-11T05:15:07.903Z,45.97
2018-01-11T05:17:36.214Z,53.40
2018-01-11T05:20:04.592Z,49.33
2018-01-11T05:22:32.887Z,48.33
2018-01-11T05:25:01.142Z,54.07
2018-01-11T05:27:29.484Z,53.47
2018-01-11T05:29:57.797Z,55.60
2018-01-11T05:32:26.265Z,53.87
2018-01-11T05:34:54.704Z,55.37
2018-01-11T05:37:23.027Z,51.43
2018-01-11T05:39:51.475Z,53.20
2018-01-11T05:42:20.872Z,51.40
2018-01-11T05:44:49.196Z,58.80
2018-01-11T05:47:17.920Z,51.00
2018-01-11T05:49:46.414Z,50.30
2018-01-11T05:52:14.736Z,51.67
2018-01-11T05:54:43.160Z,54.70
2018-01-11T05:57:11.468Z,52.47
2018-01-11T05:59:40.369Z,57.10
2018-01-11T06:02:08.847Z,53.73
2018-01-11T06:04:37.582Z,52.90
2018-01-11T06:07:06.023Z,49.80
2018-01-11T06:09:34.443Z,51.50
2018-01-11T06:12:02.754Z,55.90
2018-01-11T06:14:32.114Z,55.97
2018-01-11T06:17:01.291Z,56.30
2018-01-11T06:19:29.704Z,50.60
2018-01-11T06:21:58.519Z,57.33
2018-01-11T06:24:26.986Z,56.53
2018-01-11T06:26:55.600Z,62.20
2018-01-11T06:29:24.219Z,57.70
2018-01-11T06:31:52.595Z,59.93
2018-01-11T06:34:20.895Z,56.13
2018-01-11T06:36:49.220Z,59.00
2018-01-11T06:39:17.680Z,60.30
2018-01-11T06:41:45.994Z,61.23
2018-01-11T06:44:14.311Z,53.93
2018-01-11T06:46:42.626Z,55.97
2018-01-11T06:49:12.106Z,55.63
2018-01-11T06:51:40.491Z,53.57
2018-01-11T06:54:08.956Z,56.67
2018-01-11T06:56:37.251Z,53.33
2018-01-11T06:59:05.651Z,60.10
2018-01-11T07:01:34.020Z,56.73
2018-01-11T07:04:02.378Z,47.67
2018-01-11T07:06:30.698Z,47.77
2018-01-11T07:08:59.808Z,52.77
2018-01-11T07:11:28.281Z,54.70
2018-01-11T07:13:56.710Z,53.30
2018-01-11T07:16:25.012Z,62.03
2018-01-11T07:18:53.462Z,61.37
2018-01-11T07:21:21.764Z,54.47
2018-01-11T07:23:50.054Z,55.03
2018-01-11T07:26:18.359Z,56.93
2018-01-11T07:28:46.682Z,55.30
2018-01-11T07:31:15.120Z,57.37
2018-01-11T07:33:43.551Z,58.13
2018-01-11T07:36:12.047Z,71.73
2018-01-11T07:38:40.505Z,51.30
2018-01-11T07:41:08.819Z,377.37
2018-01-11T07:43:37.304Z,62.60
2018-01-11T07:46:05.888Z,51.40
2018-01-11T07:48:34.275Z,50.40
2018-01-11T07:51:02.723Z,48.57
2018-01-11T07:53:31.022Z,48.27
2018-01-11T07:55:59.335Z,50.60
2018-01-11T07:58:27.731Z,47.47
2018-01-11T08:00:56.039Z,49.57
2018-01-11T08:03:24.378Z,47.40
2018-01-11T08:05:52.726Z,48.00
2018-01-11T08:08:21.020Z,48.00
2018-01-11T08:10:49.342Z,45.67
2018-01-11T08:13:17.662Z,51.50
2018-01-11T08:15:46.040Z,50.93
2018-01-11T08:18:14.503Z,46.30
2018-01-11T08:20:42.850Z,51.03
2018-01-11T08:23:11.197Z,48.40
2018-01-11T08:25:39.634Z,57.83
2018-01-11T08:28:08.142Z,48.50
2018-01-11T08:30:36.449Z,54.13
2018-01-11T08:33:04.855Z,56.07
2018-01-11T08:35:33.171Z,50.70
2018-01-11T08:38:01.539Z,59.40
2018-01-11T08:40:30.068Z,60.30
2018-01-11T08:42:58.400Z,58.93
2018-01-11T08:45:26.773Z,61.90
2018-01-11T08:47:55.096Z,61.30
2018-01-11T08:50:23.711Z,60.63
2018-01-11T08:52:52.302Z,55.13
2018-01-11T08:55:20.804Z,60.23
2018-01-11T08:57:49.647Z,58.23
2018-01-11T09:00:17.961Z,55.27
2018-01-11T09:02:46.252Z,55.80
2018-01-11T09:05:14.613Z,55.20
2018-01-11T09:07:42.917Z,53.17
2018-01-11T09:10:11.261Z,54.70
2018-01-11T09:12:39.538Z,49.90
2018-01-11T09:15:07.861Z,53.60
2018-01-11T09:17:36.175Z,49.60
2018-01-11T09:20:04.483Z,53.23
2018-01-11T09:22:32.814Z,53.73
2018-01-11T09:25:01.051Z,51.23
2018-01-11T09:27:29.380Z,53.90
2018-01-11T09:29:57.646Z,50.40
2018-01-11T09:32:26.128Z,52.17
2018-01-11T09:34:54.423Z,56.67
2018-01-11T09:37:22.779Z,55.80
2018-01-11T09:39:51.076Z,51.17
2018-01-11T09:42:19.442Z,47.80
2018-01-11T09:44:47.710Z,53.03
2018-01-11T09:47:16.238Z,57.53
2018-01-11T09:49:44.679Z,53.40
2018-01-11T09:52:13.048Z,54.03
2018-01-11T09:54:41.359Z,51.27
2018-01-11T09:57:09.675Z,43.17
2018-01-11T09:59:37.967Z,46.03
2018-01-11T10:02:06.281Z,46.43
2018-01-11T10:04:34.652Z,45.10
2018-01-11T10:07:02.988Z,48.17
2018-01-11T10:09:31.304Z,45.33
2018-01-11T10:11:59.783Z,46.70
2018-01-11T10:14:28.060Z,48.40
2018-01-11T10:16:56.572Z,44.83
2018-01-11T10:19:24.864Z,46.13
2018-01-11T10:21:53.319Z,48.70
2018-01-11T10:24:21.774Z,51.20
2018-01-11T10:26:50.228Z,47.80
2018-01-11T10:29:19.066Z,44.47
2018-01-11T10:31:47.379Z,45.83
2018-01-11T10:34:15.684Z,48.10
2018-01-11T10:36:43.983Z,44.20
2018-01-11T10:39:12.367Z,44.27
2018-01-11T10:41:40.674Z,40.97
2018-01-11T10:44:08.951Z,50.63
2018-01-11T10:46:37.279Z,42.07
2018-01-11T10:49:05.673Z,42.50
2018-01-11T10:51:34.091Z,47.53
2018-01-11T10:54:02.436Z,46.40
2018-01-11T10:56:30.760Z,49.67
2018-01-11T10:58:59.075Z,45.73
2018-01-11T11:01:31.534Z,43.03
2018-01-11T11:03:59.909Z,43.97
2018-01-11T11:06:28.238Z,41.70
2018-01-11T11:08:56.527Z,44.97
2018-01-11T11:11:24.966Z,50.43
2018-01-11T11:13:53.307Z,47.03
2018-01-11T11:16:21.727Z,43.80
2018-01-11T11:18:50.193Z,44.50
2018-01-11T11:21:18.526Z,42.03
2018-01-11T11:23:46.850Z,42.40
2018-01-11T11:26:15.230Z,44.20
2018-01-11T11:28:43.517Z,38.10
2018-01-11T11:31:11.991Z,42.60
2018-01-11T11:33:40.288Z,38.70
2018-01-11T11:36:08.651Z,39.90
2018-01-11T11:38:36.915Z,42.97
2018-01-11T11:41:05.218Z,40.77
2018-01-11T11:43:33.651Z,41.10
2018-01-11T11:46:01.946Z,47.10
2018-01-11T11:48:30.236Z,41.40
2018-01-11T11:50:58.576Z,44.87
2018-01-11T11:53:26.846Z,48.23
2018-01-11T11:55:55.163Z,42.43
2018-01-11T11:58:23.455Z,43.27
2018-01-11T12:00:51.922Z,42.20
2018-01-11T12:03:21.848Z,38.57
2018-01-11T12:05:50.174Z,38.47
2018-01-11T12:08:18.480Z,40.93
2018-01-11T12:10:46.778Z,41.53
2018-01-11T12:13:15.058Z,39.10
2018-01-11T12:15:43.416Z,44.60
2018-01-11T12:18:11.730Z,52.80
2018-01-11T12:20:40.062Z,79.07
2018-01-11T12:23:08.455Z,119.17
2018-01-11T12:25:36.761Z,120.73
2018-01-11T12:28:05.215Z,108.10
2018-01-11T12:30:33.651Z,124.47
2018-01-11T12:33:02.147Z,98.23
2018-01-11T12:35:30.444Z,70.77
2018-01-11T12:37:58.743Z,64.00
2018-01-11T12:40:33.574Z,63.33
2018-01-11T12:43:02.018Z,56.70
2018-01-11T12:45:30.553Z,48.90
2018-01-11T12:47:58.862Z,47.40
2018-01-11T12:50:27.183Z,43.63
2018-01-11T12:52:57.432Z,42.50
2018-01-11T12:55:25.743Z,42.27
2018-01-11T12:57:54.072Z,35.90
2018-01-11T13:00:22.543Z,39.90
2018-01-11T13:02:50.875Z,38.13
2018-01-11T13:05:19.226Z,36.60
2018-01-11T13:07:47.601Z,38.80
2018-01-11T13:10:15.880Z,40.63
2018-01-11T13:12:44.155Z,40.73
2018-01-11T13:15:12.469Z,35.57
2018-01-11T13:17:40.895Z,40.50
2018-01-11T13:20:09.223Z,41.17
2018-01-11T13:22:37.559Z,41.27
2018-01-11T13:25:05.928Z,40.60
2018-01-11T13:27:34.275Z,41.33
2018-01-11T13:30:02.769Z,37.97
2018-01-11T13:32:31.276Z,44.80
2018-01-11T13:34:59.712Z,39.67
2018-01-11T13:37:28.420Z,40.23
2018-01-11T13:39:59.531Z,42.73
2018-01-11T13:42:28.820Z,38.73
2018-01-11T13:44:57.611Z,42.57
2018-01-11T13:47:26.824Z,37.63
2018-01-11T13:49:55.311Z,36.80
2018-01-11T13:52:23.782Z,40.00
2018-01-11T13:54:52.763Z,36.60
2018-01-11T13:57:21.669Z,45.70
2018-01-11T13:59:49.972Z,42.03
2018-01-11T14:02:18.342Z,40.67
2018-01-11T14:04:46.824Z,42.60
2018-01-11T14:07:15.313Z,36.60
2018-01-11T14:09:45.018Z,41.17
2018-01-11T14:12:15.707Z,35.33
2018-01-11T14:14:46.389Z,39.53
2018-01-11T14:17:14.799Z,39.00
2018-01-11T14:19:43.159Z,38.80
2018-01-11T14:22:11.717Z,41.17
2018-01-11T14:24:40.188Z,36.73
2018-01-11T14:27:08.687Z,38.50
2018-01-11T14:29:38.328Z,42.90
2018-01-11T14:32:06.935Z,41.37
2018-01-11T14:34:36.064Z,49.63
2018-01-11T14:37:04.431Z,44.13
2018-01-11T14:39:32.991Z,43.60
2018-01-11T14:42:01.323Z,37.73
2018-01-11T14:44:32.283Z,36.77
2018-01-11T14:47:01.075Z,38.40
2018-01-11T14:49:29.342Z,38.93
2018-01-11T14:51:57.741Z,39.70
2018-01-11T14:54:26.395Z,38.17
2018-01-11T14:56:54.958Z,43.03
2018-01-11T14:59:23.231Z,41.80
2018-01-11T15:01:51.587Z,44.93
2018-01-11T15:04:19.908Z,47.00
2018-01-11T15:06:48.260Z,39.83
2018-01-11T15:09:16.808Z,47.13
2018-01-11T15:11:45.195Z,43.43
2018-01-11T15:14:13.528Z,39.30
2018-01-11T15:16:42.011Z,44.43
2018-01-11T15:19:10.327Z,42.30
2018-01-11T15:21:38.693Z,48.10
2018-01-11T15:24:07.058Z,51.50
2018-01-11T15:26:35.387Z,47.10
2018-01-11T15:29:03.898Z,48.80
2018-01-11T15:31:32.263Z,44.60
2018-01-11T15:34:00.708Z,49.70
2018-01-11T15:36:29.058Z,46.70
2018-01-11T15:38:57.550Z,49.30
2018-01-11T15:41:25.887Z,49.90
2018-01-11T15:43:54.211Z,54.27
2018-01-11T15:46:22.515Z,49.47
2018-01-11T15:48:50.990Z,45.70
2018-01-11T15:51:19.517Z,53.80
2018-01-11T15:53:47.930Z,51.40
2018-01-11T15:56:16.385Z,50.60
2018-01-11T15:58:45.511Z,52.37
2018-01-11T16:01:13.995Z,48.00
2018-01-11T16:03:42.286Z,48.50
2018-01-11T16:06:10.711Z,53.13
2018-01-11T16:08:39.124Z,53.63
2018-01-11T16:11:07.684Z,50.37
2018-01-11T16:13:36.021Z,57.67
2018-01-11T16:16:04.391Z,59.00
2018-01-11T16:18:32.951Z,58.97
2018-01-11T16:21:01.507Z,54.50
2018-01-11T16:23:29.852Z,61.13
2018-01-11T16:25:58.456Z,52.07
2018-01-11T16:28:27.151Z,54.27
2018-01-11T16:30:55.679Z,49.63
2018-01-11T16:33:25.473Z,50.23
2018-01-11T16:35:53.788Z,52.00
2018-01-11T16:38:22.068Z,57.43
2018-01-11T16:40:50.479Z,64.87
2018-01-11T16:43:18.783Z,64.67
2018-01-11T16:45:47.127Z,64.40
2018-01-11T16:48:15.427Z,65.67
2018-01-11T16:50:44.140Z,74.40
2018-01-11T16:53:12.462Z,75.40
2018-01-11T16:55:40.774Z,88.73
2018-01-11T16:58:09.115Z,72.77
2018-01-11T17:00:37.431Z,84.97
2018-01-11T17:03:06.088Z,80.80
2018-01-11T17:05:34.382Z,91.20
2018-01-11T17:08:04.495Z,98.17
2018-01-11T17:10:32.963Z,93.13
2018-01-11T17:13:01.244Z,99.87
2018-01-11T17:15:29.587Z,105.00
2018-01-11T17:17:57.934Z,89.90
2018-01-11T17:20:26.316Z,92.53
2018-01-11T17:22:54.614Z,90.67
2018-01-11T17:25:22.972Z,111.43
2018-01-11T17:27:51.563Z,84.23
2018-01-11T17:30:19.940Z,90.30
2018-01-11T17:32:48.210Z,83.37
2018-01-11T17:35:16.870Z,87.07
2018-01-11T17:37:45.274Z,92.33
2018-01-11T17:40:14.568Z,84.70
2018-01-11T17:42:42.892Z,86.70
2018-01-11T17:45:11.218Z,88.77
2018-01-11T17:47:39.619Z,82.70
2018-01-11T17:50:11.265Z,95.10
2018-01-11T17:52:39.947Z,99.03
2018-01-11T17:55:08.267Z,103.00
2018-01-11T17:57:36.640Z,78.70
2018-01-11T18:00:05.967Z,91.27
2018-01-11T18:02:34.346Z,86.67
2018-01-11T18:05:03.230Z,90.60
2018-01-11T18:07:31.803Z,103.73
2018-01-11T18:10:01.449Z,94.37
2018-01-11T18:12:30.560Z,94.60
2018-01-11T18:14:59.826Z,86.97
2018-01-11T18:17:28.487Z,97.07
2018-01-11T18:19:57.023Z,83.17
2018-01-11T18:22:25.587Z,75.43
2018-01-11T18:24:54.482Z,64.67
2018-01-11T18:27:24.854Z,70.43
2018-01-11T18:29:53.359Z,66.73
2018-01-11T18:32:21.756Z,76.40
2018-01-11T18:34:51.730Z,70.00
2018-01-11T18:37:20.166Z,102.73
2018-01-11T18:39:49.462Z,73.47
2018-01-11T18:42:18.862Z,79.63
2018-01-11T18:44:47.387Z,82.87
2018-01-11T18:47:16.196Z,77.77
2018-01-11T18:49:45.364Z,91.30
2018-01-11T18:52:14.106Z,100.77
2018-01-11T18:54:43.376Z,89.47
2018-01-11T18:57:11.768Z,88.33
2018-01-11T18:59:41.519Z,101.00
2018-01-11T19:02:10.178Z,90.03
2018-01-11T19:04:38.770Z,73.40
2018-01-11T19:07:07.339Z,90.60
2018-01-11T19:09:35.712Z,93.33
2018-01-11T19:12:04.123Z,102.13
2018-01-11T19:14:39.079Z,99.33
2018-01-11T19:17:07.474Z,95.60
2018-01-11T19:19:35.738Z,114.83
2018-01-11T19:22:04.102Z,82.60
2018-01-11T19:24:32.417Z,102.57
2018-01-11T19:27:00.812Z,70.30
2018-01-11T19:29:29.118Z,86.63
2018-01-11T19:31:57.623Z,76.47
2018-01-11T19:34:27.541Z,66.30
2018-01-11T19:36:56.276Z,65.77
2018-01-11T19:39:24.612Z,96.70
2018-01-11T19:41:53.959Z,80.40
2018-01-11T19:44:23.033Z,91.50
2018-01-11T19:46:52.067Z,89.60
2018-01-11T19:49:21.776Z,102.30
2018-01-11T19:51:50.634Z,96.43
2018-01-11T19:54:19.160Z,114.50
2018-01-11T19:56:47.510Z,108.13
2018-01-11T19:59:16.919Z,79.40
2018-01-11T20:01:45.358Z,83.10
2018-01-11T20:04:13.636Z,76.93
2018-01-11T20:06:41.973Z,81.90
2018-01-11T20:09:10.469Z,79.80
2018-01-11T20:11:38.795Z,67.83
2018-01-11T20:14:07.126Z,68.20
2018-01-11T20:16:35.439Z,64.60
2018-01-11T20:19:04.348Z,61.77
2018-01-11T20:21:32.671Z,64.67
2018-01-11T20:24:00.979Z,63.97
2018-01-11T20:26:29.400Z,65.27
2018-01-11T20:30:00.476Z,67.50
2018-01-11T20:32:28.944Z,57.57
2018-01-11T20:34:57.208Z,61.70
2018-01-11T20:37:25.745Z,51.70
2018-01-11T20:39:54.007Z,56.33
2018-01-11T20:42:22.523Z,57.07
2018-01-11T20:44:50.838Z,57.87
2018-01-11T20:47:19.194Z,48.83
2018-01-11T20:49:47.478Z,52.90
2018-01-11T20:52:16.063Z,72.70
2018-01-11T20:54:44.452Z,68.47
2018-01-11T20:57:12.812Z,79.20
2018-01-11T20:59:41.151Z,83.73
2018-01-11T21:02:09.590Z,85.90
2018-01-11T21:04:37.883Z,83.97
2018-01-11T21:07:06.259Z,86.17
2018-01-11T21:09:34.547Z,77.17
2018-01-11T21:12:02.879Z,78.83
2018-01-11T21:14:31.227Z,86.00
2018-01-11T21:16:59.556Z,96.57
2018-01-11T21:19:27.835Z,79.50
2018-01-11T21:21:57.960Z,93.20
2018-01-11T21:24:27.393Z,86.77
2018-01-11T21:26:55.947Z,87.07
2018-01-11T21:29:24.631Z,95.70
2018-01-11T21:31:53.130Z,103.00
2018-01-11T21:34:22.632Z,97.77
2018-01-11T21:36:51.454Z,95.80
2018-01-11T21:39:20.024Z,116.47
2018-01-11T21:41:48.529Z,112.30
2018-01-11T21:44:16.855Z,110.00
2018-01-11T21:46:45.157Z,121.57
2018-01-11T21:49:13.560Z,125.30
2018-01-11T21:51:41.874Z,135.20
2018-01-11T21:54:10.356Z,113.70
2018-01-11T21:56:38.951Z,113.10
2018-01-11T21:59:07.673Z,118.43
2018-01-11T22:01:36.735Z,118.80
2018-01-11T22:04:05.389Z,118.83
2018-01-11T22:06:33.908Z,106.13
2018-01-11T22:09:02.193Z,102.90
2018-01-11T22:11:30.622Z,116.93
2018-01-11T22:13:58.939Z,113.20
2018-01-11T22:16:27.410Z,120.67
2018-01-11T22:18:55.727Z,108.13
2018-01-11T22:21:24.055Z,119.60
2018-01-11T22:23:52.360Z,115.13
2018-01-11T22:26:21.163Z,136.03
2018-01-11T22:28:49.482Z,127.63
2018-01-11T22:31:18.044Z,132.63
2018-01-11T22:33:46.451Z,122.57
2018-01-11T22:36:14.807Z,128.37
2018-01-11T22:38:43.150Z,136.13
2018-01-11T22:41:11.601Z,151.93
2018-01-11T22:43:39.935Z,124.97
2018-01-11T22:46:08.322Z,130.80
2018-01-11T22:48:36.623Z,144.60
2018-01-11T22:51:05.124Z,142.27
2018-01-11T22:53:33.454Z,128.57
2018-01-11T22:56:01.884Z,135.97
2018-01-11T22:58:30.318Z,130.57
2018-01-11T23:00:58.656Z,135.83
2018-01-11T23:03:27.062Z,128.77
2018-01-11T23:05:55.466Z,131.50
2018-01-11T23:08:23.811Z,120.37
2018-01-11T23:10:53.708Z,129.87
2018-01-11T23:13:22.004Z,126.57
2018-01-11T23:15:52.347Z,128.27
2018-01-11T23:18:20.842Z,118.60
2018-01-11T23:20:49.143Z,122.13
2018-01-11T23:23:17.525Z,128.30
2018-01-11T23:25:45.873Z,125.30
2018-01-11T23:28:14.225Z,120.77
2018-01-11T23:30:42.514Z,122.43
2018-01-11T23:33:10.858Z,127.60
2018-01-11T23:35:39.193Z,126.97
2018-01-11T23:38:07.676Z,120.13
2018-01-11T23:40:36.023Z,128.23
2018-01-11T23:43:04.326Z,106.87
2018-01-11T23:45:32.626Z,121.07
2018-01-11T23:48:00.947Z,103.43
2018-01-11T23:50:29.289Z,113.83
2018-01-11T23:52:57.640Z,108.40
2018-01-11T23:55:27.288Z,113.10
2018-01-11T23:57:55.583Z,112.53
